Time;durP1;ratioP1;P1;durP2;ratioP2;P2;SDS_P1;SDS_P2;PMS_P1;PMS_P2;Temp;Humidity;BMP_temperature;BMP_pressure;BME280_temperature;BME280_humidity;BME280_pressure;Samples;Min_cycle;Max_cycle;Signal;HPM_P1;HPM_P2
2021/05/23 00:02:00;;;;;;;8.32;7.60;;;10.50;75.00;;;;;;5205317;28;20420;-68
2021/05/23 00:04:33;;;;;;;9.10;8.30;;;10.60;75.20;;;;;;5177189;28;20045;-68
2021/05/23 00:07:07;;;;;;;9.25;8.35;;;10.60;75.10;;;;;;5207223;28;20049;-68
2021/05/23 00:09:40;;;;;;;8.82;8.02;;;10.60;75.00;;;;;;5208849;28;20045;-68
2021/05/23 00:12:14;;;;;;;8.20;7.50;;;10.50;75.30;;;;;;5207372;28;20065;-69
2021/05/23 00:14:46;;;;;;;8.20;7.50;;;10.60;75.40;;;;;;5211512;28;20064;-68
2021/05/23 00:17:17;;;;;;;8.93;8.13;;;10.60;75.60;;;;;;5190842;28;20041;-68
2021/05/23 00:19:49;;;;;;;8.35;7.63;;;10.50;75.80;;;;;;5206043;28;20038;-68
2021/05/23 00:22:21;;;;;;;9.05;8.13;;;10.50;75.70;;;;;;5193922;28;20140;-69
2021/05/23 00:24:53;;;;;;;8.45;7.65;;;10.60;75.80;;;;;;5205358;28;20450;-69
2021/05/23 00:27:25;;;;;;;8.73;7.93;;;10.60;75.90;;;;;;5189875;28;20073;-68
2021/05/23 00:29:57;;;;;;;8.60;7.80;;;10.50;76.30;;;;;;5193514;28;20067;-68
2021/05/23 00:32:29;;;;;;;9.13;8.40;;;10.50;75.80;;;;;;5207355;28;20132;-68
2021/05/23 00:35:01;;;;;;;8.57;7.78;;;10.50;75.90;;;;;;5209574;28;20053;-68
2021/05/23 00:37:34;;;;;;;8.45;7.75;;;10.60;75.70;;;;;;5205738;28;20081;-68
2021/05/23 00:40:06;;;;;;;8.63;7.93;;;10.50;76.30;;;;;;5209602;28;20696;-69
2021/05/23 00:42:38;;;;;;;8.50;7.80;;;10.60;76.10;;;;;;5209292;28;20038;-68
2021/05/23 00:45:15;;;;;;;8.80;8.07;;;10.60;76.00;;;;;;5209544;28;20037;-68
2021/05/23 00:47:47;;;;;;;9.40;8.63;;;10.60;75.70;;;;;;5193259;28;20046;-69
2021/05/23 00:50:25;;;;;;;8.63;7.93;;;10.60;75.40;;;;;;5204605;28;20068;-69
2021/05/23 00:53:00;;;;;;;9.13;8.32;;;10.60;75.50;;;;;;5207204;28;20102;-68
2021/05/23 00:55:32;;;;;;;9.18;8.25;;;10.60;75.40;;;;;;5196488;28;20044;-68
2021/05/23 00:58:06;;;;;;;9.52;8.50;;;10.50;75.10;;;;;;5206390;28;20883;-68
2021/05/23 01:00:42;;;;;;;9.50;8.60;;;10.40;73.20;;;;;;5191408;28;20149;-69
2021/05/23 01:03:29;;;;;;;9.95;9.05;;;10.40;70.60;;;;;;5190614;28;20504;-68
2021/05/23 01:06:06;;;;;;;9.75;8.95;;;10.40;71.30;;;;;;5189747;28;20573;-69
2021/05/23 01:08:39;;;;;;;9.90;9.00;;;10.40;70.90;;;;;;5207634;28;20293;-68
2021/05/23 01:11:16;;;;;;;9.48;8.60;;;10.40;70.70;;;;;;5206584;28;20527;-68
2021/05/23 01:13:58;;;;;;;9.60;8.70;;;10.30;68.70;;;;;;5207328;28;20041;-70
2021/05/23 01:16:37;;;;;;;9.40;8.60;;;10.30;69.60;;;;;;5189339;28;20682;-68
2021/05/23 01:19:21;;;;;;;9.30;8.57;;;10.30;69.40;;;;;;5207777;28;20083;-69
2021/05/23 01:21:59;;;;;;;8.98;8.18;;;10.20;69.10;;;;;;5206281;28;20071;-68
2021/05/23 01:24:38;;;;;;;8.85;8.15;;;10.10;68.90;;;;;;5205756;28;20744;-68
2021/05/23 01:27:12;;;;;;;8.68;7.97;;;10.00;68.70;;;;;;5204664;28;20508;-70
2021/05/23 01:29:44;;;;;;;8.90;8.20;;;10.00;69.00;;;;;;5209259;28;20075;-69
2021/05/23 01:32:16;;;;;;;9.02;8.32;;;9.90;69.50;;;;;;5205853;28;20069;-69
2021/05/23 01:34:48;;;;;;;8.98;8.27;;;9.90;69.70;;;;;;5190833;28;20075;-69
2021/05/23 01:37:23;;;;;;;8.77;8.07;;;9.90;70.30;;;;;;5207161;28;20060;-69
2021/05/23 01:39:55;;;;;;;8.70;8.00;;;9.90;70.00;;;;;;5190019;28;20954;-69
2021/05/23 01:42:28;;;;;;;8.52;7.82;;;9.90;68.40;;;;;;5189968;28;20045;-69
2021/05/23 01:45:01;;;;;;;8.15;7.55;;;9.70;68.20;;;;;;5194264;28;20836;-69
2021/05/23 01:47:33;;;;;;;8.15;7.55;;;9.70;68.90;;;;;;5204511;28;20551;-69
2021/05/23 01:50:06;;;;;;;8.55;7.85;;;9.60;68.80;;;;;;5206837;28;20044;-69
2021/05/23 01:52:55;;;;;;;8.02;7.32;;;9.60;69.60;;;;;;5204805;28;20057;-70
2021/05/23 01:55:29;;;;;;;8.30;7.70;;;9.60;67.70;;;;;;5209340;28;20158;-69
2021/05/23 01:58:02;;;;;;;8.30;7.60;;;9.60;67.20;;;;;;5202962;28;20099;-69
2021/05/23 02:00:40;;;;;;;8.20;7.60;;;9.50;67.50;;;;;;5201975;28;20644;-69
2021/05/23 02:03:14;;;;;;;8.35;7.75;;;9.50;68.50;;;;;;5203397;28;20432;-69
2021/05/23 02:05:51;;;;;;;8.10;7.50;;;9.40;67.00;;;;;;5204557;28;20033;-69
2021/05/23 02:08:25;;;;;;;8.18;7.50;;;9.30;67.00;;;;;;5207640;28;20047;-69
2021/05/23 02:11:01;;;;;;;8.23;7.63;;;9.30;68.20;;;;;;5206775;28;20672;-69
2021/05/23 02:13:38;;;;;;;8.13;7.53;;;9.30;68.30;;;;;;5205922;28;20137;-69
2021/05/23 02:16:10;;;;;;;8.25;7.65;;;9.30;68.90;;;;;;5206441;28;20049;-69
2021/05/23 02:18:43;;;;;;;8.20;7.60;;;9.30;68.80;;;;;;5205973;28;20099;-69
2021/05/23 02:21:15;;;;;;;8.70;8.00;;;9.40;67.80;;;;;;5195409;28;20120;-67
2021/05/23 02:23:49;;;;;;;8.38;7.78;;;9.40;68.40;;;;;;5205644;28;20128;-69
2021/05/23 02:26:22;;;;;;;8.30;7.70;;;9.40;67.60;;;;;;5204127;28;20045;-69
2021/05/23 02:28:54;;;;;;;8.27;7.68;;;9.40;68.10;;;;;;5186427;28;20056;-69
2021/05/23 02:31:26;;;;;;;8.90;8.10;;;9.40;68.80;;;;;;5201034;28;20567;-70
2021/05/23 02:33:58;;;;;;;8.73;8.02;;;9.40;69.50;;;;;;5207534;28;20044;-68
2021/05/23 02:36:30;;;;;;;8.15;7.55;;;9.40;69.90;;;;;;5205864;28;20705;-70
2021/05/23 02:39:01;;;;;;;8.35;7.65;;;9.40;70.10;;;;;;5208843;28;20034;-69
2021/05/23 02:41:33;;;;;;;8.75;8.05;;;9.40;70.60;;;;;;5206880;28;20046;-69
2021/05/23 02:44:06;;;;;;;8.65;7.95;;;9.40;70.80;;;;;;5208846;28;20041;-69
2021/05/23 02:46:38;;;;;;;8.65;7.95;;;9.40;70.80;;;;;;5203615;28;20057;-70
2021/05/23 02:49:14;;;;;;;8.77;8.07;;;9.40;70.90;;;;;;5205096;28;20080;-69
2021/05/23 02:51:46;;;;;;;8.02;7.43;;;9.30;71.00;;;;;;5205749;28;20111;-69
2021/05/23 02:54:18;;;;;;;8.70;8.00;;;9.30;71.10;;;;;;5205803;28;20227;-69
2021/05/23 02:56:50;;;;;;;8.88;7.95;;;9.30;70.80;;;;;;5204662;28;20095;-69
2021/05/23 02:59:22;;;;;;;8.10;7.40;;;9.20;72.50;;;;;;5202814;28;20566;-69
2021/05/23 03:01:53;;;;;;;7.93;7.32;;;9.10;72.30;;;;;;5203404;28;20041;-69
2021/05/23 03:04:26;;;;;;;8.25;7.55;;;9.10;72.50;;;;;;5204388;28;20120;-68
2021/05/23 03:06:58;;;;;;;7.80;7.20;;;9.10;72.30;;;;;;5206680;28;20450;-69
2021/05/23 03:09:30;;;;;;;7.97;7.38;;;9.10;72.40;;;;;;5211933;28;20053;-69
2021/05/23 03:12:02;;;;;;;7.82;7.22;;;9.00;72.70;;;;;;5209880;28;20041;-69
2021/05/23 03:14:34;;;;;;;8.07;7.38;;;9.00;72.80;;;;;;5208296;28;20092;-69
2021/05/23 03:17:07;;;;;;;8.20;7.50;;;9.00;73.30;;;;;;5210922;28;20061;-69
2021/05/23 03:19:39;;;;;;;8.30;7.60;;;9.00;73.10;;;;;;5210004;28;20068;-69
2021/05/23 03:22:11;;;;;;;8.30;7.60;;;9.00;73.00;;;;;;5207924;28;20041;-69
2021/05/23 03:24:44;;;;;;;8.45;7.75;;;9.00;72.60;;;;;;5199437;28;20443;-69
2021/05/23 03:27:16;;;;;;;8.48;7.78;;;9.00;72.80;;;;;;5205727;28;20042;-68
2021/05/23 03:29:48;;;;;;;8.20;7.50;;;9.00;73.20;;;;;;5209966;28;20052;-69
2021/05/23 03:32:20;;;;;;;8.40;7.70;;;9.00;73.80;;;;;;5198678;28;20095;-69
2021/05/23 03:34:52;;;;;;;8.50;7.70;;;9.00;73.60;;;;;;5210620;28;20115;-70
2021/05/23 03:37:24;;;;;;;8.75;7.97;;;9.00;74.50;;;;;;5192483;28;20037;-69
2021/05/23 03:39:57;;;;;;;8.77;8.07;;;9.00;74.90;;;;;;5206167;28;20045;-69
2021/05/23 03:42:28;;;;;;;7.93;7.32;;;9.00;74.40;;;;;;5205650;28;20045;-69
2021/05/23 03:45:01;;;;;;;8.50;7.80;;;8.90;74.10;;;;;;5211434;28;20045;-69
2021/05/23 03:47:33;;;;;;;8.50;7.80;;;8.90;73.50;;;;;;5209749;28;20041;-69
2021/05/23 03:50:08;;;;;;;8.40;7.70;;;8.90;73.40;;;;;;5211435;28;20043;-69
2021/05/23 03:52:40;;;;;;;8.35;7.68;;;8.90;73.40;;;;;;5210192;28;20049;-69
2021/05/23 03:55:13;;;;;;;8.20;7.60;;;8.90;73.70;;;;;;5206795;28;20077;-69
2021/05/23 03:57:44;;;;;;;7.95;7.35;;;8.90;73.60;;;;;;5209280;28;20064;-69
2021/05/23 04:00:18;;;;;;;8.50;7.85;;;8.90;73.20;;;;;;5193229;28;20044;-68
2021/05/23 04:02:53;;;;;;;8.20;7.60;;;8.80;73.40;;;;;;5210416;28;20041;-70
2021/05/23 04:05:27;;;;;;;8.30;7.60;;;8.90;73.70;;;;;;5182467;28;20048;-69
2021/05/23 04:07:59;;;;;;;8.25;7.65;;;8.80;73.30;;;;;;5211429;28;20049;-68
2021/05/23 04:10:37;;;;;;;8.60;7.90;;;8.80;73.20;;;;;;5207110;28;20494;-69
2021/05/23 04:13:10;;;;;;;8.25;7.65;;;8.70;73.30;;;;;;5204972;28;20053;-68
2021/05/23 04:15:42;;;;;;;8.23;7.53;;;8.70;73.70;;;;;;5188821;28;20048;-69
2021/05/23 04:18:14;;;;;;;8.50;7.80;;;8.60;73.50;;;;;;5209170;28;20099;-69
2021/05/23 04:20:46;;;;;;;8.57;7.90;;;8.60;74.10;;;;;;5204812;28;20417;-69
2021/05/23 04:23:20;;;;;;;7.90;7.30;;;8.50;73.30;;;;;;5207874;28;20060;-69
2021/05/23 04:25:52;;;;;;;8.10;7.50;;;8.50;73.40;;;;;;5176589;28;20061;-69
2021/05/23 04:28:24;;;;;;;8.07;7.47;;;8.50;74.10;;;;;;5189422;28;20045;-69
2021/05/23 04:30:57;;;;;;;8.13;7.53;;;8.40;73.90;;;;;;5207953;28;20044;-68
2021/05/23 04:33:29;;;;;;;8.25;7.65;;;8.40;74.20;;;;;;5188489;28;20052;-70
2021/05/23 04:36:00;;;;;;;8.10;7.45;;;8.40;73.30;;;;;;5208885;28;20049;-69
2021/05/23 04:38:33;;;;;;;7.90;7.30;;;8.30;74.30;;;;;;5176568;28;20075;-69
2021/05/23 04:41:05;;;;;;;7.78;7.18;;;8.30;73.60;;;;;;5194801;28;20091;-68
2021/05/23 04:43:36;;;;;;;7.70;7.10;;;8.30;74.60;;;;;;5204157;28;20099;-69
2021/05/23 04:46:08;;;;;;;7.63;7.03;;;8.30;74.70;;;;;;5206196;28;20469;-69
2021/05/23 04:48:40;;;;;;;8.13;7.53;;;8.30;74.40;;;;;;5207707;28;20076;-69
2021/05/23 04:51:12;;;;;;;8.10;7.50;;;8.30;74.50;;;;;;5207690;28;20118;-69
2021/05/23 04:53:44;;;;;;;8.27;7.68;;;8.20;74.40;;;;;;5208893;28;20037;-69
2021/05/23 04:56:16;;;;;;;8.23;7.63;;;8.20;74.60;;;;;;5207909;28;20045;-69
2021/05/23 04:58:48;;;;;;;8.40;7.80;;;8.20;74.70;;;;;;5205882;28;20041;-69
2021/05/23 05:01:20;;;;;;;8.30;7.70;;;8.20;74.70;;;;;;5206429;28;20044;-70
2021/05/23 05:03:52;;;;;;;8.15;7.55;;;8.10;74.60;;;;;;5207453;28;20125;-70
2021/05/23 05:06:24;;;;;;;8.02;7.43;;;8.10;75.00;;;;;;5207671;28;20789;-71
2021/05/23 05:08:56;;;;;;;8.38;7.72;;;8.10;75.30;;;;;;5189505;28;20059;-69
2021/05/23 05:11:28;;;;;;;7.95;7.35;;;8.10;75.40;;;;;;5206617;28;20134;-69
2021/05/23 05:14:00;;;;;;;8.02;7.43;;;8.10;75.40;;;;;;5208408;28;20660;-70
2021/05/23 05:16:32;;;;;;;8.80;8.00;;;8.10;75.30;;;;;;5203825;28;20774;-70
2021/05/23 05:19:04;;;;;;;8.38;7.57;;;8.10;75.40;;;;;;5205486;28;20077;-70
2021/05/23 05:21:36;;;;;;;7.90;7.30;;;8.10;74.60;;;;;;5205154;28;20111;-70
2021/05/23 05:24:09;;;;;;;7.80;7.20;;;8.00;75.00;;;;;;5205694;28;20041;-70
2021/05/23 05:26:42;;;;;;;8.00;7.40;;;8.00;75.00;;;;;;5205257;28;20037;-69
2021/05/23 05:29:14;;;;;;;7.75;7.15;;;8.00;74.00;;;;;;5207468;28;20067;-69
2021/05/23 05:31:46;;;;;;;7.80;7.20;;;8.00;74.70;;;;;;5206729;28;20110;-70
2021/05/23 05:34:18;;;;;;;8.13;7.43;;;8.00;75.10;;;;;;5195090;28;20479;-70
2021/05/23 05:36:50;;;;;;;7.72;7.03;;;7.90;74.50;;;;;;5204427;28;20138;-69
2021/05/23 05:39:22;;;;;;;8.23;7.53;;;7.90;74.80;;;;;;5206786;28;20065;-69
2021/05/23 05:41:54;;;;;;;7.78;7.07;;;7.90;74.40;;;;;;5205092;28;20049;-69
2021/05/23 05:44:26;;;;;;;8.10;7.40;;;7.90;74.60;;;;;;5206137;28;20037;-69
2021/05/23 05:46:57;;;;;;;8.02;7.43;;;7.90;74.80;;;;;;5204299;28;20049;-69
2021/05/23 05:49:29;;;;;;;7.95;7.25;;;7.90;74.30;;;;;;5190160;28;20069;-70
2021/05/23 05:52:01;;;;;;;8.77;7.97;;;7.80;74.00;;;;;;5207487;28;20057;-70
2021/05/23 05:54:33;;;;;;;8.48;7.68;;;7.70;74.80;;;;;;5204865;28;20048;-70
2021/05/23 05:57:05;;;;;;;8.55;7.85;;;7.70;74.40;;;;;;5211024;28;20774;-70
2021/05/23 05:59:48;;;;;;;9.48;7.97;;;7.70;74.80;;;;;;5207325;28;20230;-70
2021/05/23 06:02:20;;;;;;;9.88;8.98;;;7.70;74.60;;;;;;5204414;28;20082;-70
2021/05/23 06:04:52;;;;;;;10.85;9.45;;;7.70;74.60;;;;;;5204819;28;20045;-70
2021/05/23 06:07:24;;;;;;;11.73;9.82;;;7.70;74.40;;;;;;5205843;28;20037;-69
2021/05/23 06:09:56;;;;;;;9.60;8.70;;;7.60;74.90;;;;;;5206686;28;20056;-70
2021/05/23 06:12:28;;;;;;;8.30;7.50;;;7.60;74.90;;;;;;5200641;28;20042;-69
2021/05/23 06:15:00;;;;;;;7.72;6.93;;;7.60;74.60;;;;;;5192458;28;20616;-70
2021/05/23 06:17:32;;;;;;;7.72;7.07;;;7.60;74.60;;;;;;5205863;28;20133;-70
2021/05/23 06:20:05;;;;;;;7.45;6.85;;;7.60;74.60;;;;;;5200734;28;20050;-70
2021/05/23 06:22:38;;;;;;;7.50;6.90;;;7.60;75.00;;;;;;5208866;28;20045;-69
2021/05/23 06:25:10;;;;;;;7.32;6.72;;;7.60;75.10;;;;;;5204276;28;20497;-69
2021/05/23 06:27:42;;;;;;;7.60;6.90;;;7.60;75.30;;;;;;5198299;28;20053;-69
2021/05/23 06:30:15;;;;;;;7.40;6.80;;;7.70;75.50;;;;;;5204644;28;20096;-70
2021/05/23 06:32:47;;;;;;;7.38;6.78;;;7.70;75.70;;;;;;5203154;28;20068;-70
2021/05/23 06:35:19;;;;;;;7.53;6.93;;;7.70;75.70;;;;;;5208629;28;20079;-70
2021/05/23 06:37:51;;;;;;;7.80;7.10;;;7.80;75.50;;;;;;5204548;28;20041;-70
2021/05/23 06:40:23;;;;;;;7.35;6.75;;;7.80;75.70;;;;;;5204910;28;20052;-70
2021/05/23 06:42:55;;;;;;;7.80;7.20;;;7.80;76.00;;;;;;5206212;28;20745;-70
2021/05/23 06:45:26;;;;;;;7.50;6.90;;;7.80;76.50;;;;;;5200791;28;20048;-70
2021/05/23 06:47:58;;;;;;;7.43;6.82;;;7.90;76.00;;;;;;5209148;28;20045;-70
2021/05/23 06:50:33;;;;;;;7.57;6.97;;;7.90;77.50;;;;;;5192352;28;20056;-71
2021/05/23 06:53:05;;;;;;;7.53;6.93;;;7.80;75.80;;;;;;5210188;28;20443;-70
2021/05/23 06:55:38;;;;;;;7.32;6.72;;;7.80;75.70;;;;;;5209039;28;20045;-70
2021/05/23 06:58:10;;;;;;;7.53;6.93;;;7.80;75.40;;;;;;5209074;28;20420;-69
2021/05/23 07:00:42;;;;;;;8.13;7.53;;;7.80;76.20;;;;;;5211765;28;20519;-69
2021/05/23 07:03:14;;;;;;;7.95;7.35;;;7.80;74.40;;;;;;5201957;28;20053;-70
2021/05/23 07:05:46;;;;;;;7.68;7.07;;;7.80;75.50;;;;;;5199126;28;20412;-70
2021/05/23 07:08:18;;;;;;;7.72;7.13;;;7.80;76.00;;;;;;5193621;28;20052;-70
2021/05/23 07:10:50;;;;;;;7.80;7.20;;;7.80;75.70;;;;;;5175920;28;20045;-70
2021/05/23 07:13:23;;;;;;;8.05;7.45;;;7.90;75.10;;;;;;5205519;28;20734;-69
2021/05/23 07:15:55;;;;;;;7.85;7.25;;;7.90;75.70;;;;;;5209437;28;20065;-70
2021/05/23 07:18:27;;;;;;;8.00;7.40;;;8.00;75.90;;;;;;5208394;28;20489;-69
2021/05/23 07:20:59;;;;;;;8.10;7.50;;;8.10;75.90;;;;;;5211346;28;20073;-70
2021/05/23 07:23:32;;;;;;;8.00;7.40;;;8.10;75.90;;;;;;5201359;28;20040;-71
2021/05/23 07:26:04;;;;;;;8.00;7.40;;;8.20;76.00;;;;;;5190556;28;20100;-69
2021/05/23 07:28:36;;;;;;;7.90;7.30;;;8.10;75.10;;;;;;5192570;28;20057;-70
2021/05/23 07:31:08;;;;;;;7.88;7.28;;;8.00;76.00;;;;;;5207775;28;20045;-70
2021/05/23 07:33:40;;;;;;;8.00;7.30;;;8.10;75.30;;;;;;5162409;28;20054;-70
2021/05/23 07:36:12;;;;;;;7.63;7.03;;;8.10;75.80;;;;;;5208933;28;20048;-70
2021/05/23 07:38:44;;;;;;;7.30;6.70;;;8.10;75.50;;;;;;5196957;28;20107;-69
2021/05/23 07:41:16;;;;;;;7.65;6.80;;;8.10;75.80;;;;;;5209114;28;20701;-69
2021/05/23 07:43:48;;;;;;;7.10;6.50;;;8.10;75.90;;;;;;5207076;28;20099;-70
2021/05/23 07:46:20;;;;;;;7.47;6.88;;;8.20;76.00;;;;;;5209006;28;20065;-70
2021/05/23 07:48:52;;;;;;;7.25;6.65;;;8.20;76.10;;;;;;5210089;28;20037;-69
2021/05/23 07:51:24;;;;;;;8.07;7.47;;;8.30;76.50;;;;;;5207538;28;20491;-69
2021/05/23 07:53:56;;;;;;;7.97;7.32;;;8.40;76.00;;;;;;5208259;28;20041;-69
2021/05/23 07:56:28;;;;;;;8.35;7.65;;;8.40;75.70;;;;;;5190893;28;20095;-69
2021/05/23 07:59:00;;;;;;;7.57;6.97;;;8.30;75.80;;;;;;5211242;28;20045;-68
2021/05/23 08:01:31;;;;;;;7.90;7.20;;;8.30;75.50;;;;;;5205372;28;20095;-70
2021/05/23 08:04:03;;;;;;;7.60;7.00;;;8.30;74.90;;;;;;5211558;28;20045;-70
2021/05/23 08:06:35;;;;;;;8.02;7.32;;;8.20;75.40;;;;;;5206840;28;20053;-69
2021/05/23 08:09:07;;;;;;;8.00;7.40;;;8.20;75.80;;;;;;5210850;28;20049;-69
2021/05/23 08:11:40;;;;;;;7.90;7.30;;;8.30;75.60;;;;;;5208048;28;20049;-69
2021/05/23 08:14:13;;;;;;;7.65;7.05;;;8.40;74.30;;;;;;5211486;28;20045;-69
2021/05/23 08:16:47;;;;;;;8.43;7.72;;;8.40;74.80;;;;;;5208052;28;20084;-69
2021/05/23 08:19:19;;;;;;;7.55;6.95;;;8.40;74.50;;;;;;5206550;28;20037;-70
2021/05/23 08:21:51;;;;;;;7.80;7.20;;;8.50;75.90;;;;;;5208766;28;20038;-69
2021/05/23 08:24:23;;;;;;;7.65;7.05;;;8.40;75.40;;;;;;5208121;28;20652;-70
2021/05/23 08:26:55;;;;;;;7.75;7.15;;;8.40;75.80;;;;;;5208546;28;20041;-69
2021/05/23 08:29:30;;;;;;;7.57;6.97;;;8.40;76.10;;;;;;5207085;28;20053;-69
2021/05/23 08:32:02;;;;;;;7.43;6.82;;;8.40;75.20;;;;;;5209680;28;20060;-70
2021/05/23 08:34:34;;;;;;;7.57;6.97;;;8.40;75.80;;;;;;5207288;28;20420;-70
2021/05/23 08:37:06;;;;;;;8.02;7.32;;;8.50;76.60;;;;;;5206825;28;20053;-69
2021/05/23 08:39:38;;;;;;;7.28;6.68;;;8.50;74.40;;;;;;5204635;28;20125;-70
2021/05/23 08:42:10;;;;;;;7.53;6.93;;;8.50;75.20;;;;;;5196017;28;20660;-70
2021/05/23 08:44:42;;;;;;;8.18;7.47;;;8.40;76.00;;;;;;5205640;28;20849;-69
2021/05/23 08:47:14;;;;;;;7.60;7.00;;;8.40;76.00;;;;;;5207962;28;20045;-70
2021/05/23 08:49:50;;;;;;;7.80;7.20;;;8.50;76.20;;;;;;5208499;28;20046;-70
2021/05/23 08:52:22;;;;;;;8.00;7.30;;;8.60;77.60;;;;;;5206062;28;20087;-70
2021/05/23 08:54:54;;;;;;;7.72;7.13;;;8.70;76.80;;;;;;5207968;28;20041;-70
2021/05/23 08:57:26;;;;;;;7.90;7.30;;;8.80;75.70;;;;;;5207989;28;20602;-69
2021/05/23 08:59:58;;;;;;;7.35;6.75;;;8.90;75.80;;;;;;5210138;28;20076;-70
2021/05/23 09:02:30;;;;;;;7.20;6.60;;;9.00;73.20;;;;;;5190565;28;20040;-69
2021/05/23 09:05:03;;;;;;;7.28;6.68;;;9.00;75.70;;;;;;5209152;28;20048;-70
2021/05/23 09:07:45;;;;;;;7.57;6.97;;;9.10;75.40;;;;;;5209765;28;20051;-70
2021/05/23 09:10:29;;;;;;;7.57;6.97;;;9.20;75.70;;;;;;5206315;28;20705;-71
2021/05/23 09:13:01;;;;;;;7.50;6.90;;;9.30;74.20;;;;;;5207101;28;20404;-70
2021/05/23 09:15:33;;;;;;;7.65;7.05;;;9.40;74.60;;;;;;5196040;28;20045;-70
2021/05/23 09:18:09;;;;;;;8.18;7.47;;;9.60;74.60;;;;;;5204919;28;20080;-70
2021/05/23 09:20:43;;;;;;;8.20;7.60;;;9.90;73.60;;;;;;5189168;28;20898;-70
2021/05/23 09:23:21;;;;;;;8.27;7.57;;;10.10;74.90;;;;;;5207558;28;20408;-70
2021/05/23 09:25:53;;;;;;;8.10;7.50;;;10.30;74.10;;;;;;5208815;28;20451;-70
2021/05/23 09:28:30;;;;;;;8.55;7.85;;;10.60;73.80;;;;;;5208988;28;20041;-70
2021/05/23 09:31:12;;;;;;;8.90;8.20;;;10.80;73.30;;;;;;5203865;28;20064;-70
2021/05/23 09:33:53;;;;;;;9.05;8.35;;;11.10;72.80;;;;;;5190228;28;20439;-69
2021/05/23 09:36:25;;;;;;;8.48;7.85;;;11.40;71.70;;;;;;5188486;28;20455;-70
2021/05/23 09:39:03;;;;;;;8.52;7.82;;;11.50;69.10;;;;;;5207036;28;20037;-70
2021/05/23 09:41:36;;;;;;;8.80;8.10;;;11.40;67.20;;;;;;5189542;28;20567;-70
2021/05/23 09:44:27;;;;;;;8.10;7.50;;;11.30;67.70;;;;;;5207501;28;20048;-70
2021/05/23 09:47:00;;;;;;;8.20;7.60;;;11.20;70.30;;;;;;5208337;28;20910;-70
2021/05/23 09:49:41;;;;;;;8.32;7.72;;;11.00;69.60;;;;;;5190993;28;20581;-71
2021/05/23 09:52:18;;;;;;;8.43;7.73;;;10.90;69.60;;;;;;5188027;28;20072;-70
2021/05/23 09:54:53;;;;;;;8.40;7.72;;;10.80;70.00;;;;;;5205870;28;20060;-70
2021/05/23 09:57:28;;;;;;;8.98;8.27;;;10.90;70.20;;;;;;5207688;28;20099;-70
2021/05/23 10:00:05;;;;;;;9.18;8.48;;;11.10;71.90;;;;;;5206807;28;20168;-69
2021/05/23 10:02:56;;;;;;;9.45;8.65;;;11.30;72.40;;;;;;5207159;28;20044;-69
2021/05/23 10:05:28;;;;;;;8.75;8.05;;;11.70;67.70;;;;;;5205695;28;20045;-70
2021/05/23 10:08:13;;;;;;;9.13;8.38;;;11.80;70.60;;;;;;5208408;28;20517;-71
2021/05/23 10:10:47;;;;;;;9.70;8.90;;;12.00;70.10;;;;;;5196635;28;20362;-70
2021/05/23 10:13:20;;;;;;;9.40;8.70;;;12.20;70.70;;;;;;5203323;28;20094;-70
2021/05/23 10:15:53;;;;;;;9.18;8.48;;;12.30;67.80;;;;;;5204253;28;20826;-70
2021/05/23 10:18:27;;;;;;;9.15;8.45;;;12.30;67.00;;;;;;5206486;28;20119;-70
2021/05/23 10:20:59;;;;;;;9.80;9.10;;;12.40;68.60;;;;;;5212238;28;20065;-70
2021/05/23 10:23:36;;;;;;;9.98;9.10;;;12.60;65.50;;;;;;5210146;28;20033;-70
2021/05/23 10:26:11;;;;;;;9.48;8.77;;;12.80;67.20;;;;;;5211302;28;20515;-69
2021/05/23 10:28:45;;;;;;;9.55;8.85;;;12.80;66.40;;;;;;5209481;28;20587;-69
2021/05/23 10:31:32;;;;;;;10.02;9.23;;;12.90;65.10;;;;;;5208659;28;20641;-71
2021/05/23 10:34:04;;;;;;;9.48;8.68;;;13.00;66.50;;;;;;5190159;28;20049;-70
2021/05/23 10:36:39;;;;;;;9.43;8.52;;;12.90;62.80;;;;;;5207255;28;20929;-69
2021/05/23 10:39:13;;;;;;;9.40;8.57;;;12.70;63.80;;;;;;5194691;28;20470;-68
2021/05/23 10:41:45;;;;;;;9.25;8.55;;;12.60;66.20;;;;;;5209257;28;20068;-69
2021/05/23 10:44:50;;;;;;;9.00;8.30;;;12.70;65.10;;;;;;5209944;28;20452;-69
2021/05/23 10:47:30;;;;;;;9.02;8.32;;;12.70;65.30;;;;;;5211348;28;20442;-69
2021/05/23 10:50:06;;;;;;;9.32;8.55;;;12.80;64.70;;;;;;5210889;28;20041;-69
2021/05/23 10:52:40;;;;;;;9.00;8.30;;;12.80;62.50;;;;;;5210395;28;20053;-70
2021/05/23 10:55:16;;;;;;;9.18;8.48;;;12.80;65.10;;;;;;5685584;23;20053;-68
2021/05/23 10:57:49;;;;;;;9.23;8.52;;;12.80;64.90;;;;;;5210650;28;20053;-69
2021/05/23 11:00:28;;;;;;;9.07;8.38;;;12.90;65.00;;;;;;5213441;28;20388;-68
2021/05/23 11:03:16;;;;;;;9.05;8.35;;;13.00;65.30;;;;;;5208676;28;20037;-69
2021/05/23 11:06:01;;;;;;;9.18;8.45;;;13.10;64.90;;;;;;5194250;28;20048;-68
2021/05/23 11:08:35;;;;;;;9.30;8.60;;;13.00;60.20;;;;;;5208876;28;20071;-68
2021/05/23 11:11:08;;;;;;;8.73;8.02;;;12.60;63.20;;;;;;5209695;28;20057;-69
2021/05/23 11:13:41;;;;;;;8.80;8.10;;;12.20;65.70;;;;;;5194526;28;20056;-68
2021/05/23 11:16:17;;;;;;;9.50;8.80;;;11.90;63.40;;;;;;5210206;28;20056;-68
2021/05/23 11:18:49;;;;;;;9.00;8.30;;;11.50;66.80;;;;;;5194505;28;20055;-68
2021/05/23 11:21:21;;;;;;;9.63;8.90;;;11.30;65.80;;;;;;5205674;28;20049;-68
2021/05/23 11:23:54;;;;;;;9.43;8.73;;;11.60;68.00;;;;;;5209680;28;20047;-68
2021/05/23 11:26:28;;;;;;;9.05;8.35;;;11.90;62.90;;;;;;5211751;28;20071;-69
2021/05/23 11:29:02;;;;;;;9.35;8.65;;;12.00;65.80;;;;;;5210051;28;20595;-70
2021/05/23 11:31:38;;;;;;;9.60;8.90;;;12.30;67.10;;;;;;5207783;28;20045;-68
2021/05/23 11:34:13;;;;;;;9.70;9.00;;;12.50;66.50;;;;;;5207407;28;20168;-70
2021/05/23 11:36:46;;;;;;;9.60;8.90;;;12.60;61.80;;;;;;5207670;28;20075;-69
2021/05/23 11:39:17;;;;;;;9.73;9.00;;;12.80;59.20;;;;;;5210288;28;20122;-70
2021/05/23 11:41:50;;;;;;;9.77;8.98;;;12.90;66.50;;;;;;5206680;28;20045;-70
2021/05/23 11:44:33;;;;;;;9.52;8.82;;;13.20;60.60;;;;;;5208982;28;20099;-70
2021/05/23 11:47:06;;;;;;;9.80;9.10;;;13.40;61.70;;;;;;5208345;28;20065;-70
2021/05/23 11:49:44;;;;;;;9.70;9.00;;;13.50;55.90;;;;;;5209195;28;20052;-69
2021/05/23 11:52:17;;;;;;;9.88;9.07;;;13.60;60.80;;;;;;5194798;28;20411;-70
2021/05/23 11:54:58;;;;;;;9.93;9.23;;;13.30;56.70;;;;;;5207115;28;20060;-70
2021/05/23 11:57:30;;;;;;;9.82;9.13;;;13.40;56.70;;;;;;5189732;28;20046;-70
2021/05/23 12:00:14;;;;;;;10.15;9.45;;;13.60;60.10;;;;;;5186768;28;20038;-70
2021/05/23 12:02:57;;;;;;;10.52;9.63;;;13.80;57.00;;;;;;5187966;28;20042;-70
2021/05/23 12:05:42;;;;;;;10.60;9.80;;;14.00;59.60;;;;;;5187952;28;20752;-71
2021/05/23 12:08:22;;;;;;;11.13;10.23;;;14.20;56.80;;;;;;5188602;28;20463;-70
2021/05/23 12:11:07;;;;;;;10.57;9.77;;;14.30;56.80;;;;;;5186180;28;20053;-70
2021/05/23 12:13:47;;;;;;;10.27;9.48;;;14.50;54.10;;;;;;5190545;28;20113;-70
2021/05/23 12:16:20;;;;;;;10.70;9.90;;;14.50;55.80;;;;;;5192325;28;20046;-70
2021/05/23 12:18:53;;;;;;;10.40;9.60;;;14.80;53.40;;;;;;5174509;28;20115;-69
2021/05/23 12:21:29;;;;;;;10.50;9.70;;;15.00;54.20;;;;;;5186242;28;20042;-70
2021/05/23 12:24:02;;;;;;;10.70;9.90;;;15.10;52.60;;;;;;5188538;28;20112;-69
2021/05/23 12:26:34;;;;;;;10.73;9.93;;;15.50;54.40;;;;;;5187663;28;20547;-70
2021/05/23 12:29:07;;;;;;;11.35;10.55;;;15.70;57.20;;;;;;5186617;28;20072;-70
2021/05/23 12:31:47;;;;;;;11.18;10.38;;;16.00;54.60;;;;;;5187179;28;20514;-70
2021/05/23 12:34:42;;;;;;;11.48;10.68;;;16.10;57.20;;;;;;5173241;28;20064;-70
2021/05/23 12:37:20;;;;;;;11.65;10.85;;;16.20;57.70;;;;;;5185315;28;20107;-70
2021/05/23 12:39:52;;;;;;;11.70;10.90;;;16.40;56.40;;;;;;5186997;28;20526;-70
2021/05/23 12:42:32;;;;;;;11.50;10.60;;;16.50;56.80;;;;;;5185690;28;20037;-71
2021/05/23 12:45:08;;;;;;;11.70;10.80;;;16.40;57.30;;;;;;5186677;28;20053;-70
2021/05/23 12:47:51;;;;;;;11.38;10.57;;;16.40;56.10;;;;;;5185782;28;20058;-70
2021/05/23 12:50:47;;;;;;;11.32;10.52;;;16.40;55.70;;;;;;5186331;28;20049;-70
2021/05/23 12:53:28;;;;;;;11.52;10.73;;;16.40;57.90;;;;;;5179553;28;20041;-70
2021/05/23 12:56:09;;;;;;;11.48;10.48;;;16.80;58.20;;;;;;5184720;28;20038;-69
2021/05/23 12:58:54;;;;;;;11.95;11.05;;;16.90;58.60;;;;;;5188585;28;20520;-71
2021/05/23 13:01:39;;;;;;;11.35;10.55;;;16.80;58.00;;;;;;5184475;28;20456;-70
2021/05/23 13:04:22;;;;;;;11.50;10.70;;;16.70;57.00;;;;;;5188296;28;20053;-69
2021/05/23 13:07:00;;;;;;;11.57;10.77;;;16.60;53.90;;;;;;5185527;28;20139;-71
2021/05/23 13:09:45;;;;;;;11.45;10.57;;;16.70;49.80;;;;;;5187560;28;20042;-71
2021/05/23 13:12:22;;;;;;;11.50;10.60;;;16.70;49.00;;;;;;5186615;28;20048;-70
2021/05/23 13:14:59;;;;;;;11.45;10.60;;;16.60;53.70;;;;;;5184397;28;20049;-70
2021/05/23 13:17:35;;;;;;;11.77;10.88;;;16.30;53.10;;;;;;5171360;28;20045;-71
2021/05/23 13:20:09;;;;;;;11.52;10.70;;;16.30;52.30;;;;;;5186575;28;20176;-70
2021/05/23 13:22:41;;;;;;;11.55;10.65;;;16.20;54.20;;;;;;5189246;28;20045;-70
2021/05/23 13:25:13;;;;;;;11.90;11.00;;;16.40;51.10;;;;;;5189741;28;20045;-71
2021/05/23 13:27:52;;;;;;;12.30;11.30;;;16.50;49.30;;;;;;5185096;28;20050;-70